Time;durP1;ratioP1;P1;durP2;ratioP2;P2;SDS_P1;SDS_P2;PMS_P1;PMS_P2;Temp;Humidity;BMP_temperature;BMP_pressure;BME280_temperature;BME280_humidity;BME280_pressure;Samples;Min_cycle;Max_cycle;Signal;HPM_P1;HPM_P2
2023/09/07 00:01:44;;;;;;;;;;;20.40;72.60;;;;;;5012533;28;19917;-74
2023/09/07 00:04:10;;;;;;;;;;;20.40;72.50;;;;;;5030267;28;19925;-74
2023/09/07 00:06:36;;;;;;;;;;;20.40;72.40;;;;;;5012487;28;20457;-75
2023/09/07 00:09:02;;;;;;;;;;;20.40;72.40;;;;;;5030135;28;19913;-75
2023/09/07 00:11:28;;;;;;;;;;;20.30;72.40;;;;;;5012044;28;19913;-75
2023/09/07 00:13:53;;;;;;;;;;;20.30;72.50;;;;;;5012287;28;19920;-75
2023/09/07 00:16:19;;;;;;;;;;;20.20;72.50;;;;;;5012225;28;19923;-75
2023/09/07 00:18:44;;;;;;;;;;;20.20;72.60;;;;;;5029932;28;19909;-76
2023/09/07 00:21:10;;;;;;;;;;;20.10;72.60;;;;;;5029741;28;20277;-75
2023/09/07 00:23:35;;;;;;;;;;;20.10;72.60;;;;;;5012084;28;19936;-75
2023/09/07 00:26:01;;;;;;;;;;;20.10;72.70;;;;;;5029730;28;19913;-75
2023/09/07 00:28:26;;;;;;;;;;;20.10;72.70;;;;;;5012006;28;20000;-77
2023/09/07 00:30:52;;;;;;;;;;;20.10;72.70;;;;;;5011805;28;19913;-77
2023/09/07 00:33:17;;;;;;;;;;;20.10;72.60;;;;;;5011766;28;19913;-76
2023/09/07 00:35:43;;;;;;;;;;;20.10;72.70;;;;;;5029563;28;20411;-76
2023/09/07 00:38:09;;;;;;;;;;;20.10;72.80;;;;;;5011744;28;20407;-76
2023/09/07 00:40:34;;;;;;;;;;;20.10;72.80;;;;;;5011652;28;20362;-76
2023/09/07 00:43:00;;;;;;;;;;;20.10;72.80;;;;;;5029253;28;20372;-76
2023/09/07 00:45:26;;;;;;;;;;;20.20;72.80;;;;;;5011474;28;19913;-75
2023/09/07 00:47:51;;;;;;;;;;;20.20;72.70;;;;;;4995173;28;19925;-81
2023/09/07 00:50:17;;;;;;;;;;;20.20;72.50;;;;;;4995162;28;19967;-82
2023/09/07 00:52:43;;;;;;;;;;;20.30;72.60;;;;;;5011536;28;20304;-82
2023/09/07 00:55:09;;;;;;;;;;;20.30;72.40;;;;;;5011507;28;19963;-82
2023/09/07 00:57:35;;;;;;;;;;;20.40;72.40;;;;;;5011381;28;20022;-82
2023/09/07 01:00:03;;;;;;;;;;;20.40;72.30;;;;;;5029049;28;19935;-83
2023/09/07 01:02:29;;;;;;;;;;;20.40;72.30;;;;;;5029007;28;20496;-82
2023/09/07 01:04:55;;;;;;;;;;;20.40;72.30;;;;;;5011250;28;19920;-83
2023/09/07 01:07:23;;;;;;;;;;;20.40;72.30;;;;;;5029038;28;19909;-83
2023/09/07 01:09:51;;;;;;;;;;;20.40;72.50;;;;;;5028976;28;19909;-83
2023/09/07 01:12:17;;;;;;;;;;;20.40;72.50;;;;;;5028973;28;19909;-82
2023/09/07 01:14:42;;;;;;;;;;;20.40;72.40;;;;;;5028888;28;19913;-83
2023/09/07 01:17:08;;;;;;;;;;;20.40;72.30;;;;;;5029075;28;20023;-83
2023/09/07 01:19:34;;;;;;;;;;;20.40;72.30;;;;;;5011126;28;20281;-83
2023/09/07 01:22:00;;;;;;;;;;;20.50;72.30;;;;;;5028828;28;20018;-83
2023/09/07 01:24:26;;;;;;;;;;;20.50;72.30;;;;;;5028770;28;20376;-83
2023/09/07 01:26:52;;;;;;;;;;;20.40;72.30;;;;;;5011056;28;19913;-83
2023/09/07 01:29:17;;;;;;;;;;;20.50;72.40;;;;;;5028889;28;19915;-83
2023/09/07 01:31:43;;;;;;;;;;;20.50;72.80;;;;;;5028653;28;19913;-82
2023/09/07 01:34:09;;;;;;;;;;;20.50;72.30;;;;;;5010779;28;19921;-83
2023/09/07 01:36:34;;;;;;;;;;;20.50;72.30;;;;;;5028619;28;19909;-82
2023/09/07 01:39:01;;;;;;;;;;;20.50;72.20;;;;;;5028319;28;19940;-82
2023/09/07 01:41:26;;;;;;;;;;;20.50;72.20;;;;;;5028310;28;20400;-82
2023/09/07 01:43:52;;;;;;;;;;;20.50;72.20;;;;;;5010824;28;19920;-83
2023/09/07 01:46:17;;;;;;;;;;;20.50;72.20;;;;;;5010876;28;19913;-83
2023/09/07 01:48:43;;;;;;;;;;;20.50;72.80;;;;;;5010697;28;20319;-83
2023/09/07 01:51:09;;;;;;;;;;;20.50;72.30;;;;;;5028250;28;19913;-83
2023/09/07 01:53:34;;;;;;;;;;;20.40;72.30;;;;;;5028700;28;19921;-82
2023/09/07 01:56:00;;;;;;;;;;;20.40;72.30;;;;;;5028286;28;19913;-83
2023/09/07 01:58:25;;;;;;;;;;;20.40;72.40;;;;;;5028409;28;19963;-83
2023/09/07 02:00:58;;;;;;;;;;;20.30;72.30;;;;;;5028243;28;20285;-83
2023/09/07 02:03:23;;;;;;;;;;;20.30;72.80;;;;;;5028103;28;19920;-83
2023/09/07 02:05:49;;;;;;;;;;;20.30;72.40;;;;;;5013790;28;20272;-83
2023/09/07 02:08:14;;;;;;;;;;;20.30;72.20;;;;;;5010932;28;19920;-83
2023/09/07 02:10:40;;;;;;;;;;;20.30;72.20;;;;;;5010220;28;19922;-83
2023/09/07 02:13:05;;;;;;;;;;;20.30;72.20;;;;;;5028090;28;19953;-83
2023/09/07 02:15:31;;;;;;;;;;;20.30;72.10;;;;;;5027946;28;20011;-83
2023/09/07 02:17:57;;;;;;;;;;;20.20;72.10;;;;;;5027938;28;20361;-83
2023/09/07 02:20:22;;;;;;;;;;;20.10;72.20;;;;;;5010133;28;19913;-83
2023/09/07 02:22:48;;;;;;;;;;;20.00;72.40;;;;;;5027936;28;20380;-83
2023/09/07 02:25:13;;;;;;;;;;;20.00;72.30;;;;;;5027935;28;19921;-83
2023/09/07 02:27:40;;;;;;;;;;;19.80;72.30;;;;;;5027906;28;19917;-83
2023/09/07 02:30:05;;;;;;;;;;;19.70;72.40;;;;;;5010340;28;19961;-83
2023/09/07 02:32:31;;;;;;;;;;;19.70;72.50;;;;;;5010101;28;19913;-82
2023/09/07 02:34:57;;;;;;;;;;;19.60;72.60;;;;;;5027811;28;19926;-83
2023/09/07 02:37:23;;;;;;;;;;;19.60;72.60;;;;;;5010215;28;19920;-83
2023/09/07 02:39:48;;;;;;;;;;;19.50;72.50;;;;;;5027920;28;19952;-82
2023/09/07 02:42:14;;;;;;;;;;;19.40;72.50;;;;;;5027760;28;20004;-82
2023/09/07 02:44:39;;;;;;;;;;;19.30;72.60;;;;;;5027799;28;20293;-82
2023/09/07 02:47:05;;;;;;;;;;;19.20;72.60;;;;;;5010225;28;19913;-83
2023/09/07 02:49:30;;;;;;;;;;;19.20;72.70;;;;;;5027557;28;19913;-82
2023/09/07 02:51:56;;;;;;;;;;;19.20;72.70;;;;;;5027677;28;19913;-82
2023/09/07 02:54:22;;;;;;;;;;;19.20;72.70;;;;;;5027598;28;20407;-82
2023/09/07 02:56:48;;;;;;;;;;;19.30;72.60;;;;;;5027674;28;19964;-82
2023/09/07 02:59:14;;;;;;;;;;;19.30;72.50;;;;;;5027787;28;19951;-82
2023/09/07 03:01:39;;;;;;;;;;;19.30;73.00;;;;;;5027641;28;19960;-83
2023/09/07 03:04:05;;;;;;;;;;;19.30;72.40;;;;;;4993524;28;19920;-82
2023/09/07 03:06:31;;;;;;;;;;;19.40;72.40;;;;;;5009776;28;19916;-82
2023/09/07 03:08:57;;;;;;;;;;;19.40;72.40;;;;;;5027413;28;20010;-82
2023/09/07 03:11:22;;;;;;;;;;;19.40;72.50;;;;;;5009657;28;20353;-83
2023/09/07 03:13:48;;;;;;;;;;;19.30;72.40;;;;;;5009822;28;19920;-83
2023/09/07 03:16:13;;;;;;;;;;;19.30;72.40;;;;;;5009598;28;19913;-83
2023/09/07 03:18:39;;;;;;;;;;;19.30;72.40;;;;;;5027449;28;19923;-83
2023/09/07 03:21:05;;;;;;;;;;;19.20;72.40;;;;;;5027289;28;19919;-83
2023/09/07 03:23:31;;;;;;;;;;;19.20;72.50;;;;;;5028599;28;19971;-83
2023/09/07 03:25:57;;;;;;;;;;;19.10;72.60;;;;;;5031067;28;19909;-83
2023/09/07 03:28:24;;;;;;;;;;;19.00;72.60;;;;;;5031148;28;20280;-82
2023/09/07 03:30:50;;;;;;;;;;;19.00;72.70;;;;;;5030615;28;19917;-83
2023/09/07 03:33:16;;;;;;;;;;;19.10;72.80;;;;;;5013141;28;20368;-82
2023/09/07 03:35:41;;;;;;;;;;;19.10;72.60;;;;;;5012877;28;19925;-82
2023/09/07 03:38:08;;;;;;;;;;;19.10;72.60;;;;;;5030733;28;19964;-82
2023/09/07 03:40:34;;;;;;;;;;;19.20;72.60;;;;;;5030643;28;19913;-82
2023/09/07 03:42:59;;;;;;;;;;;19.20;72.50;;;;;;5032822;28;20312;-82
2023/09/07 03:45:25;;;;;;;;;;;19.20;72.50;;;;;;5032941;28;19948;-83
2023/09/07 03:47:50;;;;;;;;;;;19.20;72.50;;;;;;5030565;28;19917;-83
2023/09/07 03:50:16;;;;;;;;;;;19.20;72.50;;;;;;5012801;28;19939;-82
2023/09/07 03:52:41;;;;;;;;;;;19.20;72.40;;;;;;5030376;28;20382;-82
2023/09/07 03:55:07;;;;;;;;;;;19.20;72.50;;;;;;4996279;28;19959;-82
2023/09/07 03:57:33;;;;;;;;;;;19.20;72.50;;;;;;5012674;28;19916;-82
2023/09/07 03:59:58;;;;;;;;;;;19.20;72.60;;;;;;5012548;28;19921;-82
2023/09/07 04:02:24;;;;;;;;;;;19.20;72.60;;;;;;5012420;28;19930;-82
2023/09/07 04:04:50;;;;;;;;;;;19.30;72.60;;;;;;5030283;28;20379;-82
2023/09/07 04:07:16;;;;;;;;;;;19.40;72.60;;;;;;5030172;28;19921;-82
2023/09/07 04:09:42;;;;;;;;;;;19.40;72.40;;;;;;4995925;28;19913;-83
2023/09/07 04:12:07;;;;;;;;;;;19.40;72.30;;;;;;5030139;28;19917;-82
2023/09/07 04:14:33;;;;;;;;;;;19.50;72.30;;;;;;5012411;28;20258;-82
2023/09/07 04:16:58;;;;;;;;;;;19.50;72.30;;;;;;5012227;28;19917;-82
2023/09/07 04:19:24;;;;;;;;;;;19.50;72.30;;;;;;5029931;28;19920;-82
2023/09/07 04:21:51;;;;;;;;;;;19.50;72.30;;;;;;5029911;28;19916;-82
2023/09/07 04:24:17;;;;;;;;;;;19.50;72.40;;;;;;5012340;28;19913;-82
2023/09/07 04:26:42;;;;;;;;;;;19.50;72.40;;;;;;5029779;28;20337;-82
2023/09/07 04:29:08;;;;;;;;;;;19.50;72.40;;;;;;5029972;28;19928;-82
2023/09/07 04:31:34;;;;;;;;;;;19.50;72.40;;;;;;5029633;28;20003;-82
2023/09/07 04:34:00;;;;;;;;;;;19.50;72.30;;;;;;5011252;28;19917;-82
2023/09/07 04:36:25;;;;;;;;;;;19.50;72.30;;;;;;5029534;28;19939;-83
2023/09/07 04:38:51;;;;;;;;;;;19.50;72.30;;;;;;5029714;28;19917;-82
2023/09/07 04:41:16;;;;;;;;;;;19.50;72.30;;;;;;5011746;28;19914;-82
2023/09/07 04:43:45;;;;;;;;;;;19.50;72.40;;;;;;5029413;28;20143;-82
2023/09/07 04:46:11;;;;;;;;;;;19.40;72.50;;;;;;5011779;28;19948;-83
2023/09/07 04:48:37;;;;;;;;;;;19.40;72.60;;;;;;5011465;28;19956;-82
2023/09/07 04:51:06;;;;;;;;;;;19.30;72.50;;;;;;5011450;28;19948;-82
2023/09/07 04:53:33;;;;;;;;;;;19.30;72.40;;;;;;5029283;28;20262;-82
2023/09/07 04:55:59;;;;;;;;;;;19.30;72.50;;;;;;5011352;28;19913;-82
2023/09/07 04:58:24;;;;;;;;;;;19.30;72.50;;;;;;5029106;28;19909;-83
2023/09/07 05:00:50;;;;;;;;;;;19.30;72.50;;;;;;5029317;28;19920;-82
2023/09/07 05:03:16;;;;;;;;;;;19.30;72.50;;;;;;4995010;28;19923;-82
2023/09/07 05:05:42;;;;;;;;;;;19.20;72.50;;;;;;5011350;28;20384;-82
2023/09/07 05:08:07;;;;;;;;;;;19.20;72.50;;;;;;5028639;28;19917;-73
2023/09/07 05:10:33;;;;;;;;;;;19.10;72.50;;;;;;5028877;28;19923;-82
2023/09/07 05:12:59;;;;;;;;;;;19.10;72.50;;;;;;5011342;28;19920;-82
2023/09/07 05:15:25;;;;;;;;;;;19.20;72.50;;;;;;4994634;28;19913;-82
2023/09/07 05:17:51;;;;;;;;;;;19.10;72.40;;;;;;5028553;28;19921;-83
2023/09/07 05:20:17;;;;;;;;;;;19.10;72.60;;;;;;5010807;28;19963;-82
2023/09/07 05:22:43;;;;;;;;;;;19.10;72.60;;;;;;5034662;28;19926;-80
2023/09/07 05:25:09;;;;;;;;;;;19.10;72.70;;;;;;5028820;28;19910;-81
2023/09/07 05:27:35;;;;;;;;;;;19.10;72.70;;;;;;5010896;28;20394;-81
2023/09/07 05:30:01;;;;;;;;;;;19.10;72.80;;;;;;5010555;28;20006;-81
2023/09/07 05:32:26;;;;;;;;;;;19.10;72.80;;;;;;5028530;28;19917;-82
2023/09/07 05:34:52;;;;;;;;;;;19.20;72.80;;;;;;5028126;28;19936;-81
2023/09/07 05:37:17;;;;;;;;;;;19.20;72.80;;;;;;5028429;28;19913;-82
2023/09/07 05:39:43;;;;;;;;;;;19.20;72.80;;;;;;5028324;28;19921;-81
2023/09/07 05:42:08;;;;;;;;;;;19.30;72.70;;;;;;4994236;28;20290;-81
2023/09/07 05:44:34;;;;;;;;;;;19.30;72.60;;;;;;5010603;28;19921;-81
2023/09/07 05:46:59;;;;;;;;;;;19.30;72.50;;;;;;5009727;28;19972;-81
2023/09/07 05:49:25;;;;;;;;;;;19.30;72.50;;;;;;5027884;28;19913;-81
2023/09/07 05:51:51;;;;;;;;;;;19.30;72.60;;;;;;5028276;28;19914;-81
2023/09/07 05:54:16;;;;;;;;;;;19.30;72.60;;;;;;5010390;28;19952;-81
2023/09/07 05:56:42;;;;;;;;;;;19.30;72.60;;;;;;5027941;28;20343;-80
2023/09/07 05:59:07;;;;;;;;;;;19.40;72.50;;;;;;5027978;28;19999;-81
2023/09/07 06:01:33;;;;;;;;;;;19.30;72.40;;;;;;5028013;28;20006;-81
2023/09/07 06:03:58;;;;;;;;;;;19.30;72.30;;;;;;5010146;28;19913;-81
2023/09/07 06:06:24;;;;;;;;;;;19.30;72.30;;;;;;5027851;28;20399;-81
2023/09/07 06:08:50;;;;;;;;;;;19.30;72.30;;;;;;5027699;28;19956;-81
2023/09/07 06:11:15;;;;;;;;;;;19.30;72.40;;;;;;5027662;28;19917;-81
2023/09/07 06:13:41;;;;;;;;;;;19.40;72.50;;;;;;5009920;28;19917;-80
2023/09/07 06:16:07;;;;;;;;;;;19.40;72.60;;;;;;5010061;28;19917;-77
2023/09/07 06:18:32;;;;;;;;;;;19.40;72.60;;;;;;5027660;28;20258;-81
2023/09/07 06:20:58;;;;;;;;;;;19.50;72.60;;;;;;5027607;28;19967;-81
2023/09/07 06:23:23;;;;;;;;;;;19.50;72.70;;;;;;5027820;28;19921;-81
2023/09/07 06:25:49;;;;;;;;;;;19.60;72.60;;;;;;5027999;28;20443;-81
2023/09/07 06:28:14;;;;;;;;;;;19.80;72.60;;;;;;5027654;28;20349;-80
2023/09/07 06:30:40;;;;;;;;;;;19.80;72.60;;;;;;5027536;28;19981;-81
2023/09/07 06:33:06;;;;;;;;;;;19.80;72.70;;;;;;5027735;28;20003;-81
2023/09/07 06:35:32;;;;;;;;;;;19.90;72.70;;;;;;5009771;28;19932;-80
2023/09/07 06:37:58;;;;;;;;;;;19.90;72.70;;;;;;5011057;28;19920;-80
2023/09/07 06:40:25;;;;;;;;;;;19.90;73.20;;;;;;5027567;28;20297;-80
2023/09/07 06:42:51;;;;;;;;;;;20.00;72.80;;;;;;4993739;28;19917;-80
2023/09/07 06:45:17;;;;;;;;;;;20.00;72.80;;;;;;5009935;28;19948;-81
2023/09/07 06:47:42;;;;;;;;;;;20.10;72.80;;;;;;5027870;28;19913;-80
2023/09/07 06:50:08;;;;;;;;;;;20.10;72.80;;;;;;5009736;28;19917;-80
2023/09/07 06:52:33;;;;;;;;;;;20.10;72.80;;;;;;5027545;28;20036;-81
2023/09/07 06:54:59;;;;;;;;;;;20.20;72.90;;;;;;5027693;28;19928;-81
2023/09/07 06:57:25;;;;;;;;;;;20.30;73.00;;;;;;5010355;28;19917;-81
2023/09/07 06:59:50;;;;;;;;;;;20.30;72.80;;;;;;5014808;28;20339;-81
2023/09/07 07:02:16;;;;;;;;;;;20.40;72.80;;;;;;5032691;28;19917;-81
2023/09/07 07:04:43;;;;;;;;;;;20.50;72.80;;;;;;5031539;28;20347;-81
2023/09/07 07:07:09;;;;;;;;;;;20.50;72.60;;;;;;5013541;28;19913;-81
2023/09/07 07:09:35;;;;;;;;;;;20.60;72.70;;;;;;5030634;28;19940;-81
2023/09/07 07:12:03;;;;;;;;;;;20.60;72.80;;;;;;5030983;28;19920;-79
2023/09/07 07:14:29;;;;;;;;;;;20.80;72.90;;;;;;5030858;28;19913;-82
2023/09/07 07:16:54;;;;;;;;;;;20.80;72.70;;;;;;5012865;28;19936;-82
2023/09/07 07:19:20;;;;;;;;;;;21.00;72.70;;;;;;5013225;28;20027;-81
2023/09/07 07:21:45;;;;;;;;;;;21.10;72.70;;;;;;5030587;28;20193;-82
2023/09/07 07:24:11;;;;;;;;;;;21.20;72.60;;;;;;5030830;28;19913;-82
2023/09/07 07:26:36;;;;;;;;;;;21.30;72.60;;;;;;5013232;28;20337;-81
2023/09/07 07:29:02;;;;;;;;;;;21.30;72.50;;;;;;5012769;28;20151;-82
2023/09/07 07:31:29;;;;;;;;;;;21.40;72.60;;;;;;5030113;28;20003;-82
2023/09/07 07:33:55;;;;;;;;;;;21.60;72.70;;;;;;5030261;28;20016;-81
2023/09/07 07:36:21;;;;;;;;;;;21.70;72.80;;;;;;4996587;28;20592;-82
2023/09/07 07:38:46;;;;;;;;;;;21.80;72.90;;;;;;5030399;28;19916;-82
2023/09/07 07:41:12;;;;;;;;;;;21.80;72.90;;;;;;5011989;28;19917;-82
2023/09/07 07:43:37;;;;;;;;;;;21.90;72.90;;;;;;5011999;28;19916;-73
2023/09/07 07:46:03;;;;;;;;;;;22.00;73.10;;;;;;5051933;28;19924;-83
2023/09/07 07:48:29;;;;;;;;;;;22.20;73.20;;;;;;5052444;28;20004;-80
2023/09/07 07:50:55;;;;;;;;;;;22.40;73.10;;;;;;5050401;28;19947;-81
2023/09/07 07:53:20;;;;;;;;;;;22.50;73.10;;;;;;5050496;28;19952;-81
2023/09/07 07:55:48;;;;;;;;;;;22.50;73.20;;;;;;5050547;28;19915;-79
2023/09/07 07:58:14;;;;;;;;;;;22.70;73.30;;;;;;5050355;28;19955;-82
2023/09/07 08:00:40;;;;;;;;;;;22.80;73.20;;;;;;5048533;28;19989;-84
2023/09/07 08:03:06;;;;;;;;;;;22.90;73.10;;;;;;5041123;28;20276;-76
2023/09/07 08:05:32;;;;;;;;;;;22.90;73.10;;;;;;5040485;28;19967;-76
2023/09/07 08:07:58;;;;;;;;;;;22.90;73.00;;;;;;5020884;28;19914;-76
2023/09/07 08:10:23;;;;;;;;;;;22.80;73.10;;;;;;5021371;28;19913;-75
2023/09/07 08:12:53;;;;;;;;;;;22.80;73.20;;;;;;5040307;28;19913;-75
2023/09/07 08:15:21;;;;;;;;;;;22.70;73.20;;;;;;5040604;28;19916;-75
2023/09/07 08:17:47;;;;;;;;;;;22.60;73.30;;;;;;5035348;28;19920;-76
2023/09/07 08:20:13;;;;;;;;;;;22.70;73.40;;;;;;5006482;28;20226;-75
2023/09/07 08:22:41;;;;;;;;;;;22.70;73.40;;;;;;5020828;28;20007;-75
2023/09/07 08:25:07;;;;;;;;;;;22.80;73.50;;;;;;5039016;28;19919;-76
2023/09/07 08:27:33;;;;;;;;;;;23.00;73.70;;;;;;5022460;28;19982;-75
2023/09/07 08:29:59;;;;;;;;;;;23.20;73.60;;;;;;5006426;28;19956;-76
2023/09/07 08:32:24;;;;;;;;;;;23.30;73.40;;;;;;5021443;28;19916;-76
2023/09/07 08:34:51;;;;;;;;;;;23.50;73.40;;;;;;5037419;28;20426;-76
2023/09/07 08:37:17;;;;;;;;;;;23.60;73.30;;;;;;5038252;28;19912;-76
2023/09/07 08:39:42;;;;;;;;;;;23.60;73.60;;;;;;5020979;28;20009;-76
2023/09/07 08:42:09;;;;;;;;;;;23.80;73.70;;;;;;5019217;28;19975;-76
2023/09/07 08:44:36;;;;;;;;;;;24.00;73.60;;;;;;5021829;28;20004;-76
2023/09/07 08:47:03;;;;;;;;;;;24.20;73.50;;;;;;5039662;28;19955;-75
2023/09/07 08:49:29;;;;;;;;;;;24.60;73.80;;;;;;5021336;28;20224;-76
2023/09/07 08:51:58;;;;;;;;;;;24.80;73.50;;;;;;5017445;28;19990;-75
2023/09/07 08:54:24;;;;;;;;;;;24.90;73.40;;;;;;5015649;28;19952;-76
2023/09/07 08:56:50;;;;;;;;;;;24.90;73.50;;;;;;5042962;28;19918;-78
2023/09/07 08:59:15;;;;;;;;;;;24.90;73.40;;;;;;4999928;28;19914;-78
2023/09/07 09:01:41;;;;;;;;;;;24.80;73.40;;;;;;5031070;28;19917;-79
2023/09/07 09:04:07;;;;;;;;;;;24.70;73.60;;;;;;5013825;28;20003;-78
2023/09/07 09:06:33;;;;;;;;;;;24.60;73.80;;;;;;5030068;28;19916;-79
2023/09/07 09:08:59;;;;;;;;;;;24.60;73.80;;;;;;5013812;28;19920;-79
2023/09/07 09:11:26;;;;;;;;;;;24.60;73.90;;;;;;5028461;28;19967;-78
2023/09/07 09:13:52;;;;;;;;;;;24.60;74.00;;;;;;5027651;28;19913;-78
2023/09/07 09:16:18;;;;;;;;;;;24.70;74.10;;;;;;5018177;28;19909;-78
2023/09/07 09:18:52;;;;;;;;;;;24.80;74.20;;;;;;5047680;28;19909;-79
2023/09/07 09:21:18;;;;;;;;;;;25.20;74.80;;;;;;5014157;28;19946;-79
2023/09/07 09:23:44;;;;;;;;;;;26.20;75.60;;;;;;5031264;28;20349;-78
2023/09/07 09:26:09;;;;;;;;;;;27.00;75.00;;;;;;5030591;28;20029;-79
2023/09/07 09:28:35;;;;;;;;;;;27.40;74.20;;;;;;5012517;28;19953;-78
2023/09/07 09:31:01;;;;;;;;;;;27.50;73.70;;;;;;5029987;28;19913;-80
2023/09/07 09:33:28;;;;;;;;;;;27.50;73.40;;;;;;4995736;28;19913;-80
2023/09/07 09:35:54;;;;;;;;;;;27.40;73.20;;;;;;5030174;28;20582;-80
2023/09/07 09:38:19;;;;;;;;;;;27.20;73.30;;;;;;5012232;28;19909;-80
2023/09/07 09:40:45;;;;;;;;;;;27.00;73.20;;;;;;5024430;28;19913;-80
2023/09/07 09:43:11;;;;;;;;;;;26.70;73.20;;;;;;5017855;28;19971;-80
2023/09/07 09:45:37;;;;;;;;;;;26.50;73.50;;;;;;5031948;28;20320;-80
2023/09/07 09:48:03;;;;;;;;;;;26.30;73.50;;;;;;5030707;28;19991;-81
2023/09/07 09:50:28;;;;;;;;;;;26.10;73.70;;;;;;5020099;28;20277;-78
2023/09/07 09:52:54;;;;;;;;;;;26.00;73.80;;;;;;4995621;28;19917;-79
2023/09/07 09:55:21;;;;;;;;;;;25.90;73.80;;;;;;4995107;28;19921;-79
2023/09/07 09:57:47;;;;;;;;;;;25.80;74.00;;;;;;5011902;28;20238;-78
2023/09/07 10:02:49;;;;;;;;;;;25.80;73.90;;;;;;5043147;28;19920;-77
2023/09/07 10:05:16;;;;;;;;;;;25.70;73.90;;;;;;5043484;28;19916;-74
2023/09/07 10:07:42;;;;;;;;;;;25.60;73.90;;;;;;5040320;28;19916;-75
2023/09/07 10:10:12;;;;;;;;;;;25.60;74.00;;;;;;5017282;28;20668;-79
2023/09/07 10:12:50;;;;;;;;;;;25.60;74.00;;;;;;5044273;28;19916;-73
2023/09/07 10:15:20;;;;;;;;;;;25.70;74.00;;;;;;5016749;28;20504;-76
2023/09/07 10:17:46;;;;;;;;;;;25.80;74.10;;;;;;5019327;28;20268;-80
2023/09/07 10:20:12;;;;;;;;;;;26.30;74.70;;;;;;5024916;28;19913;-74
2023/09/07 10:22:37;;;;;;;;;;;26.90;74.70;;;;;;5035972;28;20016;-78
2023/09/07 10:25:03;;;;;;;;;;;27.30;74.20;;;;;;5031103;28;19944;-76
2023/09/07 10:27:36;;;;;;;;;;;27.30;74.00;;;;;;5043540;28;19960;-75
2023/09/07 10:30:09;;;;;;;;;;;27.40;74.10;;;;;;5046574;28;19956;-77
2023/09/07 10:32:38;;;;;;;;;;;27.40;74.10;;;;;;5040494;28;20414;-73
2023/09/07 10:35:11;;;;;;;;;;;27.50;74.40;;;;;;5041844;28;19921;-78
2023/09/07 10:37:38;;;;;;;;;;;27.70;74.60;;;;;;5042955;28;20296;-76
2023/09/07 10:40:05;;;;;;;;;;;27.80;74.40;;;;;;5047032;28;19940;-77
2023/09/07 10:42:33;;;;;;;;;;;27.80;74.10;;;;;;5033498;28;19921;-78
2023/09/07 10:47:34;;;;;;;;;;;27.70;73.70;;;;;;5609011;22;20304;-71
2023/09/07 10:49:59;;;;;;;;;;;27.60;73.80;;;;;;5011053;28;19924;-79
2023/09/07 10:52:25;;;;;;;;;;;27.60;74.00;;;;;;4993936;28;19995;-79
2023/09/07 10:54:57;;;;;;;;;;;27.80;74.30;;;;;;4994004;28;19918;-78
2023/09/07 10:57:23;;;;;;;;;;;28.20;74.50;;;;;;4994199;28;19983;-81
2023/09/07 10:59:48;;;;;;;;;;;28.80;74.70;;;;;;4977944;28;20451;-76
2023/09/07 11:02:15;;;;;;;;;;;29.40;74.70;;;;;;4993474;28;20040;-78
2023/09/07 11:04:40;;;;;;;;;;;29.90;74.40;;;;;;4994010;28;19976;-80
2023/09/07 11:07:06;;;;;;;;;;;30.10;74.00;;;;;;4978309;28;19918;-81
2023/09/07 11:09:32;;;;;;;;;;;30.10;73.70;;;;;;4977812;28;19920;-80
2023/09/07 11:12:03;;;;;;;;;;;30.00;74.10;;;;;;5012387;28;19968;-79
2023/09/07 11:14:29;;;;;;;;;;;30.20;74.90;;;;;;5012399;28;19959;-78
2023/09/07 11:16:58;;;;;;;;;;;31.10;75.70;;;;;;4993985;28;19918;-77
2023/09/07 11:19:23;;;;;;;;;;;32.00;75.90;;;;;;5012008;28;19979;-79
2023/09/07 11:21:51;;;;;;;;;;;32.60;75.20;;;;;;4993912;28;20373;-80
2023/09/07 11:24:17;;;;;;;;;;;32.80;74.80;;;;;;5012140;28;19948;-78
2023/09/07 11:26:43;;;;;;;;;;;32.80;74.50;;;;;;4993569;28;19960;-79
2023/09/07 11:29:08;;;;;;;;;;;32.60;74.30;;;;;;5011181;28;19914;-78
2023/09/07 11:31:34;;;;;;;;;;;32.20;74.20;;;;;;4994653;28;20024;-78
2023/09/07 11:33:59;;;;;;;;;;;32.00;74.50;;;;;;4993924;28;20004;-79
2023/09/07 11:36:25;;;;;;;;;;;32.00;74.70;;;;;;5011428;28;19914;-82
2023/09/07 11:38:51;;;;;;;;;;;31.80;74.50;;;;;;4993855;28;19914;-82
2023/09/07 11:41:16;;;;;;;;;;;31.60;74.90;;;;;;4994488;28;19913;-79
2023/09/07 11:43:42;;;;;;;;;;;31.80;75.50;;;;;;4992810;28;19913;-77
2023/09/07 11:46:08;;;;;;;;;;;32.20;75.50;;;;;;4993887;28;19920;-80
2023/09/07 11:48:34;;;;;;;;;;;32.60;75.30;;;;;;4977423;28;20365;-79
2023/09/07 11:51:00;;;;;;;;;;;32.90;74.90;;;;;;4994597;28;19913;-79
2023/09/07 11:53:25;;;;;;;;;;;32.70;74.30;;;;;;4994580;28;19945;-81
2023/09/07 11:55:51;;;;;;;;;;;32.60;74.20;;;;;;5012071;28;19960;-82
2023/09/07 11:58:16;;;;;;;;;;;32.40;74.10;;;;;;4994438;28;19916;-84
2023/09/07 12:00:43;;;;;;;;;;;32.10;74.30;;;;;;4994277;28;19913;-77
2023/09/07 12:03:08;;;;;;;;;;;31.70;74.70;;;;;;5011175;28;20315;-80
2023/09/07 12:05:35;;;;;;;;;;;31.50;74.90;;;;;;5010640;28;19914;-79
2023/09/07 12:08:01;;;;;;;;;;;31.30;74.80;;;;;;4993399;28;19917;-77
2023/09/07 12:10:27;;;;;;;;;;;31.10;75.10;;;;;;5010795;28;20121;-80
2023/09/07 12:12:52;;;;;;;;;;;31.00;75.20;;;;;;4995027;28;20356;-79
2023/09/07 12:15:18;;;;;;;;;;;31.10;75.20;;;;;;5018156;28;19916;-81
2023/09/07 12:17:43;;;;;;;;;;;31.30;75.40;;;;;;5019909;28;19913;-76
2023/09/07 12:20:10;;;;;;;;;;;31.50;75.50;;;;;;5015938;28;19914;-81
2023/09/07 12:22:39;;;;;;;;;;;31.90;75.60;;;;;;5006305;28;19913;-81
2023/09/07 12:25:08;;;;;;;;;;;32.30;75.90;;;;;;5020067;28;19920;-80
2023/09/07 12:27:34;;;;;;;;;;;32.70;75.70;;;;;;5010401;28;19916;-81
2023/09/07 12:30:05;;;;;;;;;;;32.60;75.30;;;;;;4982777;28;19921;-76
2023/09/07 12:32:31;;;;;;;;;;;32.50;75.30;;;;;;5006614;28;19913;-75
2023/09/07 12:34:57;;;;;;;;;;;32.30;75.40;;;;;;5012599;28;19920;-79
2023/09/07 12:37:23;;;;;;;;;;;32.20;75.90;;;;;;4996174;28;19923;-79
2023/09/07 12:39:51;;;;;;;;;;;32.60;76.60;;;;;;5030200;28;19917;-76
2023/09/07 12:42:17;;;;;;;;;;;32.90;76.30;;;;;;5029926;28;19914;-75
2023/09/07 12:44:43;;;;;;;;;;;33.00;75.80;;;;;;5029851;28;19910;-77
2023/09/07 12:47:09;;;;;;;;;;;32.90;75.40;;;;;;5011370;28;19949;-76
2023/09/07 12:49:34;;;;;;;;;;;32.80;75.20;;;;;;5029570;28;19921;-76
2023/09/07 12:52:01;;;;;;;;;;;32.70;75.30;;;;;;5029367;28;20040;-76
2023/09/07 12:54:27;;;;;;;;;;;33.00;76.10;;;;;;5029394;28;20406;-76
2023/09/07 12:56:52;;;;;;;;;;;33.60;76.40;;;;;;5028946;28;19922;-75
2023/09/07 12:59:18;;;;;;;;;;;34.00;75.90;;;;;;5028833;28;19913;-76
2023/09/07 13:01:43;;;;;;;;;;;34.00;75.40;;;;;;4995024;28;20011;-78
2023/09/07 13:04:11;;;;;;;;;;;33.60;75.10;;;;;;4987656;28;19918;-77
2023/09/07 13:06:36;;;;;;;;;;;33.60;75.80;;;;;;4975942;28;20362;-78
2023/09/07 13:09:04;;;;;;;;;;;33.90;76.20;;;;;;4971700;28;19925;-77
2023/09/07 13:11:29;;;;;;;;;;;34.20;75.90;;;;;;4987483;28;19941;-80
2023/09/07 13:13:55;;;;;;;;;;;34.10;75.80;;;;;;5006645;28;20000;-78
2023/09/07 13:16:21;;;;;;;;;;;33.60;75.60;;;;;;5007883;28;20369;-79
2023/09/07 13:18:46;;;;;;;;;;;33.30;75.80;;;;;;5002964;28;20294;-83
2023/09/07 13:21:12;;;;;;;;;;;32.90;76.00;;;;;;4956309;28;19914;-78
2023/09/07 13:23:37;;;;;;;;;;;32.80;76.20;;;;;;4972552;28;20324;-76
2023/09/07 13:26:03;;;;;;;;;;;32.60;76.10;;;;;;4960150;28;19917;-80
2023/09/07 13:28:28;;;;;;;;;;;32.40;76.20;;;;;;5005466;28;20349;-79
2023/09/07 13:30:54;;;;;;;;;;;32.50;76.60;;;;;;5020430;28;19944;-77
2023/09/07 13:33:19;;;;;;;;;;;32.80;76.90;;;;;;5021815;28;19917;-79
2023/09/07 13:35:45;;;;;;;;;;;33.20;76.80;;;;;;5018618;28;19921;-79
2023/09/07 13:38:11;;;;;;;;;;;33.30;76.50;;;;;;5020012;28;20411;-80
2023/09/07 13:40:36;;;;;;;;;;;33.20;76.40;;;;;;5021138;28;19928;-79
2023/09/07 13:43:02;;;;;;;;;;;33.30;76.60;;;;;;5022885;28;19924;-80
2023/09/07 13:45:29;;;;;;;;;;;33.40;76.60;;;;;;4998273;28;19917;-79
2023/09/07 13:47:55;;;;;;;;;;;33.50;76.40;;;;;;5017478;28;19969;-79
2023/09/07 13:50:20;;;;;;;;;;;33.50;76.20;;;;;;5003494;28;19964;-80
2023/09/07 13:52:46;;;;;;;;;;;33.60;76.00;;;;;;4998880;28;19910;-80
2023/09/07 13:55:11;;;;;;;;;;;33.60;76.00;;;;;;5024042;28;19917;-79
2023/09/07 13:57:37;;;;;;;;;;;33.50;75.80;;;;;;5000464;28;19922;-79
2023/09/07 14:00:03;;;;;;;;;;;33.40;75.80;;;;;;4988270;28;20361;-79
2023/09/07 14:02:28;;;;;;;;;;;33.30;75.50;;;;;;5006842;28;19921;-70
2023/09/07 14:04:54;;;;;;;;;;;33.10;75.60;;;;;;5011070;28;20306;-78
2023/09/07 14:07:19;;;;;;;;;;;33.00;75.70;;;;;;4993763;28;19974;-80
2023/09/07 14:09:45;;;;;;;;;;;32.90;75.60;;;;;;4994791;28;19948;-78
2023/09/07 14:12:11;;;;;;;;;;;32.70;76.10;;;;;;4995264;28;20368;-81
2023/09/07 14:14:37;;;;;;;;;;;32.50;75.60;;;;;;5028788;28;20291;-78